Time;durP1;ratioP1;P1;durP2;ratioP2;P2;SDS_P1;SDS_P2;PMS_P1;PMS_P2;Temp;Humidity;BMP_temperature;BMP_pressure;BME280_temperature;BME280_humidity;BME280_pressure;Samples;Min_cycle;Max_cycle;Signal;HPM_P1;HPM_P2
2022/08/21 00:00:11;;;;;;;1.30;0.73;;;;;;;18.92;51.38;101421.44;4953891;28;96970;-47
2022/08/21 00:02:37;;;;;;;1.70;0.67;;;;;;;18.88;51.21;101414.66;4951218;28;102345;-47
2022/08/21 00:05:03;;;;;;;0.93;0.80;;;;;;;18.83;51.43;101419.03;4955754;28;97516;-48
2022/08/21 00:07:29;;;;;;;1.47;0.60;;;;;;;18.78;51.43;101422.69;4955140;28;97185;-48
2022/08/21 00:09:55;;;;;;;2.20;0.80;;;;;;;18.75;51.61;101417.41;4954813;28;97250;-48
2022/08/21 00:12:20;;;;;;;1.40;0.87;;;;;;;18.75;51.51;101417.41;4955763;28;97310;-48
2022/08/21 00:14:46;;;;;;;0.70;0.60;;;;;;;18.70;51.59;101411.38;4956342;28;98439;-48
2022/08/21 00:17:11;;;;;;;1.20;0.70;;;;;;;18.68;51.52;101407.63;4955885;28;96652;-47
2022/08/21 00:19:36;;;;;;;1.17;0.67;;;;;;;18.67;51.43;101411.72;4955292;28;96718;-48
2022/08/21 00:22:02;;;;;;;1.47;0.77;;;;;;;18.62;51.50;101404.94;4953598;28;96670;-48
2022/08/21 00:24:27;;;;;;;2.80;0.93;;;;;;;18.56;51.37;101403.50;4957401;28;97358;-47
2022/08/21 00:26:53;;;;;;;0.80;0.80;;;;;;;18.51;51.45;101404.34;4952800;28;99395;-47
2022/08/21 00:29:18;;;;;;;1.20;0.73;;;;;;;18.43;51.55;101409.00;4956738;28;97036;-48
2022/08/21 00:31:44;;;;;;;3.63;1.00;;;;;;;18.30;51.67;101404.13;4951056;28;97279;-48
2022/08/21 00:34:12;;;;;;;1.63;0.80;;;;;;;18.19;51.96;101414.66;4957787;28;97337;-48
2022/08/21 00:36:38;;;;;;;1.00;0.70;;;;;;;18.12;52.03;101406.91;4953605;28;97284;-48
2022/08/21 00:39:07;;;;;;;1.43;0.97;;;;;;;18.11;52.25;101410.97;4950877;28;97743;-48
2022/08/21 00:41:34;;;;;;;1.40;1.30;;;;;;;18.11;52.24;101405.41;4954164;28;97988;-48
2022/08/21 00:44:00;;;;;;;1.50;0.80;;;;;;;18.11;52.20;101410.97;4953844;28;97223;-48
2022/08/21 00:46:25;;;;;;;1.23;0.90;;;;;;;18.05;52.06;101413.06;4953337;28;97362;-48
2022/08/21 00:48:50;;;;;;;1.00;0.83;;;;;;;17.98;52.17;101414.41;4952418;28;97178;-48
2022/08/21 00:51:25;;;;;;;2.93;0.90;;;;;;;17.95;52.49;101419.00;4954094;28;98498;-46
2022/08/21 00:53:55;;;;;;;1.93;0.90;;;;;;;17.94;52.14;101419.53;4954560;28;101603;-50
2022/08/21 00:56:23;;;;;;;0.70;0.60;;;;;;;17.90;52.23;101414.25;4958786;28;97194;-46
2022/08/21 00:58:48;;;;;;;1.00;0.80;;;;;;;17.86;52.38;101411.03;4954810;28;97302;-49
2022/08/21 01:01:14;;;;;;;1.07;0.80;;;;;;;17.85;52.48;101417.88;4952260;28;96824;-47
2022/08/21 01:03:40;;;;;;;3.63;0.80;;;;;;;17.83;52.38;101414.84;4953138;28;96862;-49
2022/08/21 01:06:06;;;;;;;0.90;0.80;;;;;;;17.82;52.46;101413.34;4953847;28;97147;-54
2022/08/21 01:08:32;;;;;;;1.20;0.60;;;;;;;17.80;52.78;101410.31;4958853;28;96840;-49
2022/08/21 01:10:59;;;;;;;3.90;0.97;;;;;;;17.79;52.71;101414.41;4953026;28;97450;-50
2022/08/21 01:13:26;;;;;;;5.00;1.20;;;;;;;17.76;52.71;101418.22;4956768;28;97167;-46
2022/08/21 01:15:53;;;;;;;1.10;0.73;;;;;;;17.79;52.75;101414.41;4948034;28;97443;-47
2022/08/21 01:18:20;;;;;;;1.30;0.83;;;;;;;17.79;52.72;101413.63;4950997;28;97103;-47
2022/08/21 01:21:16;;;;;;;2.40;0.87;;;;;;;17.71;53.43;101419.03;4957606;28;97610;-47
2022/08/21 01:23:44;;;;;;;0.80;0.80;;;;;;;17.67;52.82;101417.84;4952242;28;101627;-49
2022/08/21 01:26:11;;;;;;;0.70;0.70;;;;;;;17.61;52.56;101419.91;4951043;28;97350;-47
2022/08/21 01:28:42;;;;;;;1.33;0.77;;;;;;;17.50;52.69;101431.13;4954148;28;97032;-48
2022/08/21 01:31:11;;;;;;;1.00;0.80;;;;;;;17.41;52.80;101421.09;4952059;28;97078;-46
2022/08/21 01:33:37;;;;;;;2.50;1.10;;;;;;;17.39;52.83;101417.31;4953419;28;96961;-50
2022/08/21 01:36:02;;;;;;;1.20;1.10;;;;;;;17.34;53.07;101424.47;4952867;28;96792;-48
2022/08/21 01:38:28;;;;;;;1.00;0.70;;;;;;;17.34;52.91;101412.59;4949669;28;97231;-46
2022/08/21 01:40:53;;;;;;;1.23;0.90;;;;;;;17.31;53.01;101414.38;4952131;28;97516;-46
2022/08/21 01:43:19;;;;;;;0.87;0.87;;;;;;;17.33;52.99;101416.63;4953062;28;105506;-47
2022/08/21 01:45:44;;;;;;;1.43;0.90;;;;;;;17.31;52.90;101410.84;4953539;28;97461;-48
2022/08/21 01:48:09;;;;;;;1.83;1.13;;;;;;;17.29;52.91;101416.16;4953567;28;96923;-47
2022/08/21 01:50:35;;;;;;;1.50;0.80;;;;;;;17.27;52.86;101407.59;4952360;28;101814;-48
2022/08/21 01:53:01;;;;;;;3.20;1.07;;;;;;;17.25;52.78;101408.13;4955012;28;97126;-47
2022/08/21 01:55:27;;;;;;;1.20;1.10;;;;;;;17.19;52.95;101405.38;4957483;28;97497;-47
2022/08/21 01:57:52;;;;;;;1.40;1.10;;;;;;;17.12;52.99;101408.72;4954218;28;97125;-48
2022/08/21 02:00:24;;;;;;;3.43;1.20;;;;;;;17.09;53.18;101400.69;4960084;28;97012;-47
2022/08/21 02:02:51;;;;;;;2.10;0.83;;;;;;;17.07;53.35;101409.56;4955533;28;101631;-47
2022/08/21 02:05:18;;;;;;;1.50;0.80;;;;;;;17.08;53.35;101404.75;4960818;28;97616;-47
2022/08/21 02:07:47;;;;;;;2.10;0.90;;;;;;;17.09;53.49;101398.66;4955331;28;96794;-47
2022/08/21 02:10:16;;;;;;;2.37;0.70;;;;;;;17.09;53.32;101407.00;4954516;28;98571;-47
2022/08/21 02:12:41;;;;;;;2.10;1.00;;;;;;;17.04;53.24;101407.03;4956863;28;97578;-48
2022/08/21 02:15:07;;;;;;;1.17;0.80;;;;;;;17.02;53.38;101404.03;4957632;28;96893;-48
2022/08/21 02:18:02;;;;;;;1.13;0.93;;;;;;;16.99;53.74;101394.69;4956137;28;96801;-48
2022/08/21 02:20:32;;;;;;;2.00;0.63;;;;;;;16.90;53.21;101392.25;4957712;28;102011;-47
2022/08/21 02:22:57;;;;;;;1.83;0.83;;;;;;;16.86;53.41;101396.59;4958129;28;98375;-48
2022/08/21 02:25:25;;;;;;;0.87;0.87;;;;;;;16.85;53.30;101409.72;4953711;28;97075;-48
2022/08/21 02:27:50;;;;;;;1.43;1.00;;;;;;;16.81;53.16;101391.84;4958627;28;96845;-48
2022/08/21 02:30:24;;;;;;;1.07;0.80;;;;;;;16.66;53.57;101394.22;4956503;28;99772;-48
2022/08/21 02:32:50;;;;;;;2.63;1.10;;;;;;;16.53;53.45;101392.06;4950967;28;101927;-48
2022/08/21 02:35:15;;;;;;;0.90;0.90;;;;;;;16.45;53.64;101388.28;4959578;28;97152;-48
2022/08/21 02:37:53;;;;;;;1.27;1.00;;;;;;;16.45;54.09;101389.03;4956416;28;98050;-48
2022/08/21 02:40:22;;;;;;;1.23;1.13;;;;;;;16.43;53.65;101391.56;4954795;28;100807;-47
2022/08/21 02:42:48;;;;;;;2.30;1.00;;;;;;;16.37;53.76;101396.41;4958910;28;96696;-47
2022/08/21 02:45:14;;;;;;;0.60;0.60;;;;;;;16.31;53.78;101387.38;4956037;28;97227;-48
2022/08/21 02:47:46;;;;;;;0.90;0.90;;;;;;;16.30;53.90;101380.28;4956212;28;97109;-48
2022/08/21 02:50:11;;;;;;;1.33;0.87;;;;;;;16.28;53.79;101384.84;4958855;28;97154;-48
2022/08/21 02:52:37;;;;;;;1.33;0.70;;;;;;;16.25;54.01;101381.06;4957843;28;97329;-49
2022/08/21 02:55:02;;;;;;;0.90;0.90;;;;;;;16.27;53.90;101381.31;4952851;28;97499;-48
2022/08/21 02:57:28;;;;;;;1.10;1.00;;;;;;;16.27;53.88;101375.03;4953103;28;97249;-48
2022/08/21 02:59:53;;;;;;;1.43;1.00;;;;;;;16.29;53.98;101376.00;4959002;28;97025;-47
2022/08/21 03:02:18;;;;;;;2.93;1.07;;;;;;;16.29;53.82;101372.47;4957162;28;99852;-48
2022/08/21 03:04:44;;;;;;;4.23;1.00;;;;;;;16.25;53.88;101369.97;4955994;28;97353;-47
2022/08/21 03:07:09;;;;;;;1.83;1.00;;;;;;;16.21;54.06;101365.94;4957653;28;96978;-47
2022/08/21 03:09:34;;;;;;;0.90;0.80;;;;;;;16.19;54.00;101363.69;4948334;28;109936;-48
2022/08/21 03:12:00;;;;;;;1.27;1.10;;;;;;;16.18;53.93;101367.75;4955262;28;97166;-48
2022/08/21 03:14:25;;;;;;;2.50;0.80;;;;;;;16.16;54.00;101361.19;4956110;28;97021;-49
2022/08/21 03:16:51;;;;;;;2.13;1.20;;;;;;;16.12;54.13;101357.94;4954838;28;97104;-47
2022/08/21 03:19:16;;;;;;;0.80;0.80;;;;;;;16.12;54.12;101355.91;4954987;28;96938;-47
2022/08/21 03:21:41;;;;;;;1.53;0.70;;;;;;;16.12;54.17;101369.06;4957400;28;96961;-47
2022/08/21 03:24:07;;;;;;;6.50;1.10;;;;;;;16.09;54.15;101368.06;4952628;28;97209;-48
2022/08/21 03:26:32;;;;;;;0.93;0.80;;;;;;;16.12;54.21;101366.28;4953985;28;96911;-47
2022/08/21 03:28:58;;;;;;;1.67;0.70;;;;;;;16.12;54.19;101369.06;4958098;28;97875;-47
2022/08/21 03:31:26;;;;;;;1.40;1.10;;;;;;;16.12;54.20;101366.28;4956638;28;96948;-47
2022/08/21 03:33:54;;;;;;;1.63;1.00;;;;;;;16.09;54.24;101362.50;4956997;28;97272;-47
2022/08/21 03:36:20;;;;;;;1.10;1.10;;;;;;;16.11;54.22;101361.97;4955012;28;97238;-48
2022/08/21 03:38:45;;;;;;;1.67;1.23;;;;;;;16.12;54.27;101363.50;4955903;28;97392;-47
2022/08/21 03:41:10;;;;;;;1.03;0.80;;;;;;;16.11;54.15;101362.75;4955635;28;97197;-47
2022/08/21 03:43:36;;;;;;;2.40;0.90;;;;;;;16.12;54.15;101363.50;4952034;28;97433;-47
2022/08/21 03:46:03;;;;;;;2.30;1.27;;;;;;;16.12;54.16;101352.41;4955333;28;97365;-47
2022/08/21 03:48:28;;;;;;;1.97;1.00;;;;;;;16.10;54.17;101352.88;4955394;28;97628;-48
2022/08/21 03:50:54;;;;;;;0.90;0.80;;;;;;;16.11;54.28;101351.63;4956242;28;98265;-47
2022/08/21 03:53:20;;;;;;;1.10;0.80;;;;;;;16.11;54.38;101354.41;4956371;28;97048;-47
2022/08/21 03:55:47;;;;;;;1.47;0.80;;;;;;;16.12;54.38;101358.69;4956897;28;96888;-47
2022/08/21 03:58:15;;;;;;;0.97;0.97;;;;;;;16.11;54.43;101362.75;4955291;28;97099;-47
2022/08/21 04:00:41;;;;;;;1.33;0.80;;;;;;;16.10;54.38;101361.22;4957642;28;97504;-47
2022/08/21 04:03:06;;;;;;;1.40;0.90;;;;;;;16.07;54.51;101361.50;4956500;28;97694;-47
2022/08/21 04:05:32;;;;;;;1.00;0.80;;;;;;;16.07;54.61;101350.41;4955018;28;97701;-47
2022/08/21 04:08:03;;;;;;;1.00;0.80;;;;;;;16.05;54.68;101358.50;4952304;28;99223;-48
2022/08/21 04:10:30;;;;;;;2.40;1.00;;;;;;;16.04;54.73;101360.50;4953838;28;96740;-48
2022/08/21 04:12:56;;;;;;;1.47;0.70;;;;;;;16.07;54.91;101356.72;4960314;28;97208;-47
2022/08/21 04:15:23;;;;;;;1.93;0.90;;;;;;;16.11;54.78;101359.97;4957184;28;97132;-47
2022/08/21 04:17:49;;;;;;;1.60;0.90;;;;;;;16.15;54.72;101363.22;4951730;28;96913;-47
2022/08/21 04:20:16;;;;;;;2.43;0.80;;;;;;;16.16;54.80;101373.03;4956280;28;97659;-51
2022/08/21 04:22:41;;;;;;;0.80;0.80;;;;;;;16.16;54.94;101356.38;4953262;28;97046;-50
2022/08/21 04:25:07;;;;;;;1.23;0.80;;;;;;;16.19;55.02;101363.69;4951551;28;97546;-46
2022/08/21 04:27:34;;;;;;;0.97;0.67;;;;;;;16.23;55.03;101364.16;4958169;28;97677;-48
2022/08/21 04:30:00;;;;;;;1.40;1.07;;;;;;;16.28;55.08;101360.63;4960286;28;97205;-46
2022/08/21 04:32:26;;;;;;;0.63;0.63;;;;;;;16.32;55.16;101366.66;4957627;28;96820;-47
2022/08/21 04:34:58;;;;;;;1.00;0.70;;;;;;;16.38;55.58;101363.84;4950359;28;96979;-49
2022/08/21 04:37:24;;;;;;;1.30;0.73;;;;;;;16.42;55.23;101365.03;4951821;28;97046;-49
2022/08/21 04:39:49;;;;;;;1.13;1.03;;;;;;;16.47;55.22;101369.06;4950337;28;97239;-47
2022/08/21 04:42:15;;;;;;;0.80;0.67;;;;;;;16.53;55.29;101369.06;4958050;28;96801;-48
2022/08/21 04:44:40;;;;;;;1.33;1.20;;;;;;;16.53;55.14;101374.63;4955046;28;96818;-49
2022/08/21 04:47:06;;;;;;;1.13;0.70;;;;;;;16.53;55.25;101374.63;4955589;28;96949;-47
2022/08/21 04:49:32;;;;;;;1.33;0.83;;;;;;;16.49;55.43;101383.94;4957557;28;97259;-50
2022/08/21 04:51:59;;;;;;;2.40;1.00;;;;;;;16.46;55.46;101381.44;4953126;28;97104;-47
2022/08/21 04:54:24;;;;;;;1.50;1.00;;;;;;;16.51;55.55;101385.50;4951026;28;97875;-48
2022/08/21 04:56:55;;;;;;;3.90;0.90;;;;;;;16.58;55.60;101382.16;4953348;28;97631;-48
2022/08/21 04:59:24;;;;;;;0.60;0.60;;;;;;;16.63;55.54;101384.91;4953689;28;100280;-47
2022/08/21 05:01:50;;;;;;;1.30;0.93;;;;;;;16.68;55.54;101383.34;4953860;28;97321;-49
2022/08/21 05:04:20;;;;;;;0.60;0.60;;;;;;;16.74;55.54;101390.38;4953649;28;97215;-47
2022/08/21 05:06:48;;;;;;;1.13;0.90;;;;;;;16.75;55.45;101394.66;4955377;28;97338;-46
2022/08/21 05:09:16;;;;;;;1.20;0.83;;;;;;;16.76;55.57;101387.81;4954851;28;97377;-49
2022/08/21 05:11:42;;;;;;;1.27;0.60;;;;;;;16.82;55.75;101382.25;4953960;28;96869;-53
2022/08/21 05:14:08;;;;;;;0.90;0.90;;;;;;;16.88;55.72;101388.50;4957463;28;97247;-50
2022/08/21 05:16:33;;;;;;;1.33;0.83;;;;;;;16.93;55.50;101396.00;4950761;28;97042;-48
2022/08/21 05:18:59;;;;;;;0.90;0.60;;;;;;;16.97;55.55;101390.94;4957561;28;97550;-50
2022/08/21 05:21:24;;;;;;;1.03;0.80;;;;;;;17.02;55.48;101393.66;4953411;28;97118;-47
2022/08/21 05:23:49;;;;;;;0.70;0.70;;;;;;;17.08;55.54;101396.41;4952148;28;97442;-48
2022/08/21 05:26:15;;;;;;;0.70;0.60;;;;;;;17.11;55.56;101393.34;4956915;28;99016;-47
2022/08/21 05:28:40;;;;;;;2.03;0.80;;;;;;;17.14;55.42;101394.31;4954031;28;96783;-47
2022/08/21 05:31:05;;;;;;;0.70;0.70;;;;;;;17.17;55.60;101393.25;4955121;28;97395;-47
2022/08/21 05:33:31;;;;;;;0.87;0.87;;;;;;;17.24;55.74;101406.59;4956265;28;97187;-46
2022/08/21 05:35:56;;;;;;;2.93;1.10;;;;;;;17.33;55.79;101411.84;4957534;28;98470;-46
2022/08/21 05:38:24;;;;;;;1.23;0.73;;;;;;;17.40;55.75;101413.28;4957015;28;96877;-48
2022/08/21 05:40:49;;;;;;;0.87;0.87;;;;;;;17.47;55.92;101416.25;4960334;28;97148;-46
2022/08/21 05:43:15;;;;;;;0.93;0.93;;;;;;;17.54;55.74;101415.69;4958823;28;96699;-46
2022/08/21 05:45:41;;;;;;;1.10;0.80;;;;;;;17.60;55.99;101435.13;4960024;28;97965;-48
2022/08/21 05:48:16;;;;;;;0.80;0.80;;;;;;;17.66;56.21;101419.88;4962688;28;98594;-48
2022/08/21 05:50:42;;;;;;;1.23;0.70;;;;;;;17.71;55.89;101424.59;4957212;28;97219;-51
2022/08/21 05:53:09;;;;;;;1.33;0.87;;;;;;;17.79;55.85;101424.78;4960675;28;97121;-45
2022/08/21 05:55:36;;;;;;;1.97;1.17;;;;;;;17.86;55.89;101424.94;4959036;28;97372;-48
2022/08/21 05:58:01;;;;;;;2.43;0.93;;;;;;;17.93;55.96;101429.16;4959577;28;97399;-48
2022/08/21 06:00:27;;;;;;;1.10;1.00;;;;;;;18.01;55.81;101423.75;4958200;28;97527;-48
2022/08/21 06:02:52;;;;;;;1.90;1.00;;;;;;;18.06;55.93;101420.16;4962463;28;96943;-49
2022/08/21 06:05:18;;;;;;;2.73;1.27;;;;;;;18.13;55.85;101419.56;4959063;28;98663;-47
2022/08/21 06:07:43;;;;;;;1.90;0.90;;;;;;;18.19;55.81;101423.78;4951432;28;97157;-49
2022/08/21 06:10:09;;;;;;;0.70;0.60;;;;;;;18.26;55.91;101419.63;4958823;28;96774;-47
2022/08/21 06:12:34;;;;;;;1.67;1.07;;;;;;;18.30;55.75;101406.91;4961468;28;97193;-48
2022/08/21 06:15:00;;;;;;;3.07;1.03;;;;;;;18.37;55.75;101405.56;4960965;28;97057;-49
2022/08/21 06:17:25;;;;;;;0.80;0.70;;;;;;;18.42;55.70;101413.06;4956313;28;97239;-48
2022/08/21 06:19:52;;;;;;;0.70;0.60;;;;;;;18.49;55.84;101409.69;4959180;28;96818;-48
2022/08/21 06:22:18;;;;;;;2.93;0.90;;;;;;;18.56;55.99;101406.31;4954635;28;96994;-49
2022/08/21 06:24:44;;;;;;;2.13;1.13;;;;;;;18.63;55.80;101405.69;4960478;28;97437;-46
2022/08/21 06:27:10;;;;;;;1.60;0.90;;;;;;;18.70;55.80;101421.78;4960271;28;97358;-49
2022/08/21 06:29:35;;;;;;;1.23;0.80;;;;;;;18.77;55.59;101410.03;4959518;28;97096;-48
2022/08/21 06:32:02;;;;;;;0.90;0.80;;;;;;;18.85;55.74;101401.78;4958303;28;97181;-48
2022/08/21 06:34:28;;;;;;;0.77;0.77;;;;;;;18.92;55.81;101409.50;4961652;28;99949;-47
2022/08/21 06:36:53;;;;;;;1.13;0.90;;;;;;;19.00;55.83;101413.22;4960525;28;97051;-49
2022/08/21 06:39:19;;;;;;;1.00;0.90;;;;;;;19.06;56.10;101406.25;4960262;28;97272;-49
2022/08/21 06:41:44;;;;;;;3.10;0.77;;;;;;;19.12;55.91;101401.31;4953674;28;98633;-49
2022/08/21 06:44:10;;;;;;;1.30;1.10;;;;;;;19.19;55.81;101405.50;4960907;28;96797;-48
2022/08/21 06:46:35;;;;;;;1.13;0.70;;;;;;;19.24;55.76;101402.63;4957098;28;97389;-47
2022/08/21 06:49:00;;;;;;;1.20;1.10;;;;;;;19.32;55.93;101402.75;4956673;28;96728;-46
2022/08/21 06:51:26;;;;;;;2.33;1.00;;;;;;;19.36;55.76;101408.78;4956365;28;97087;-46
2022/08/21 06:53:53;;;;;;;1.77;1.30;;;;;;;19.39;55.80;101408.47;4954314;28;97826;-48
2022/08/21 06:56:19;;;;;;;2.13;0.80;;;;;;;19.41;56.09;101408.69;4958430;28;97192;-52
2022/08/21 06:58:44;;;;;;;1.90;1.10;;;;;;;19.44;56.22;101407.59;4949905;28;97314;-47
2022/08/21 07:01:10;;;;;;;1.63;0.87;;;;;;;19.50;56.11;101406.75;4957196;28;97195;-46
2022/08/21 07:03:38;;;;;;;1.00;0.90;;;;;;;19.58;55.96;101407.59;4955538;28;97004;-47
2022/08/21 07:06:08;;;;;;;2.07;1.40;;;;;;;19.63;56.15;101407.50;4958685;28;97744;-47
2022/08/21 07:08:34;;;;;;;1.57;1.27;;;;;;;19.68;56.19;101408.69;4957698;28;96979;-51
2022/08/21 07:11:02;;;;;;;1.37;1.10;;;;;;;19.75;56.10;101397.63;4957682;28;96773;-46
2022/08/21 07:13:28;;;;;;;2.30;0.90;;;;;;;19.85;56.03;101400.72;4954666;28;97585;-46
2022/08/21 07:15:53;;;;;;;2.17;1.20;;;;;;;19.93;56.03;101393.19;4955423;28;97143;-47
2022/08/21 07:18:19;;;;;;;1.40;1.30;;;;;;;20.03;55.78;101395.00;4955517;28;96991;-46
2022/08/21 07:20:45;;;;;;;1.90;1.13;;;;;;;20.14;55.82;101396.78;4953195;28;97505;-46
2022/08/21 07:23:39;;;;;;;1.60;1.10;;;;;;;20.24;55.63;101395.09;4953256;28;97583;-47
2022/08/21 07:26:05;;;;;;;1.93;1.20;;;;;;;20.36;55.52;101393.53;4955594;28;100127;-47
2022/08/21 07:28:30;;;;;;;1.30;1.20;;;;;;;20.46;55.18;101389.00;4955180;28;97005;-49
2022/08/21 07:30:57;;;;;;;1.20;1.10;;;;;;;20.59;55.42;101394.53;4957919;28;97575;-48
2022/08/21 07:33:25;;;;;;;1.23;1.13;;;;;;;20.72;55.12;101388.88;4956460;28;97903;-47
2022/08/21 07:35:50;;;;;;;4.23;1.40;;;;;;;20.83;55.16;101385.81;4953374;28;96921;-49
2022/08/21 07:38:16;;;;;;;6.20;1.73;;;;;;;20.95;54.99;101386.25;4956125;28;96956;-46
2022/08/21 07:40:41;;;;;;;1.73;1.43;;;;;;;21.07;54.94;101381.16;4958282;28;96971;-45
2022/08/21 07:43:06;;;;;;;2.33;1.40;;;;;;;21.18;54.95;101381.63;4956536;28;97927;-49
2022/08/21 07:45:32;;;;;;;1.87;1.27;;;;;;;21.30;55.01;101373.66;4956395;28;97672;-49
2022/08/21 07:47:57;;;;;;;2.60;1.80;;;;;;;21.42;54.84;101380.47;4954649;28;97088;-47
2022/08/21 07:50:23;;;;;;;1.90;1.20;;;;;;;21.56;54.88;101370.66;4952617;28;97366;-49
2022/08/21 07:52:48;;;;;;;2.57;1.60;;;;;;;21.70;54.80;101366.44;4956574;28;97151;-48
2022/08/21 07:55:18;;;;;;;1.27;1.17;;;;;;;21.84;54.27;101367.09;4954372;28;97046;-48
2022/08/21 07:57:46;;;;;;;1.90;1.63;;;;;;;22.01;54.07;101382.09;4952168;28;96970;-47
2022/08/21 08:00:17;;;;;;;1.27;0.80;;;;;;;22.16;53.69;101365.34;4953466;28;98191;-48
2022/08/21 08:02:49;;;;;;;2.77;1.20;;;;;;;22.31;53.21;101373.78;4955834;28;97604;-48
2022/08/21 08:05:16;;;;;;;2.10;0.90;;;;;;;22.47;53.22;101368.19;4958213;28;97861;-48
2022/08/21 08:07:42;;;;;;;3.03;1.20;;;;;;;22.62;52.96;101371.06;4948806;28;96818;-47
2022/08/21 08:10:08;;;;;;;1.93;1.10;;;;;;;22.76;52.69;101369.56;4955245;28;97054;-47
2022/08/21 08:12:35;;;;;;;2.30;1.53;;;;;;;22.91;52.20;101350.66;4954896;28;99052;-47
2022/08/21 08:15:01;;;;;;;1.30;0.97;;;;;;;23.06;52.18;101361.16;4955386;28;97097;-48
2022/08/21 08:17:27;;;;;;;1.87;1.30;;;;;;;23.24;51.99;101357.16;4957284;28;97270;-47
2022/08/21 08:19:53;;;;;;;2.53;1.10;;;;;;;23.35;51.47;101358.88;4959547;28;97158;-47
2022/08/21 08:22:23;;;;;;;2.00;1.30;;;;;;;23.47;51.69;101352.28;4958077;28;100710;-47
2022/08/21 08:24:50;;;;;;;1.77;1.17;;;;;;;23.59;51.18;101361.78;4959522;28;97569;-48
2022/08/21 08:27:16;;;;;;;1.30;1.20;;;;;;;23.73;50.59;101356.69;4958464;28;97363;-48
2022/08/21 08:29:42;;;;;;;3.13;1.10;;;;;;;23.88;50.29;101358.69;4957563;28;97421;-48
2022/08/21 08:32:07;;;;;;;1.00;0.70;;;;;;;24.02;49.56;101355.06;4957345;28;98687;-48
2022/08/21 08:34:34;;;;;;;2.97;1.40;;;;;;;24.13;49.33;101351.84;4958321;28;97215;-48
2022/08/21 08:36:59;;;;;;;1.40;1.17;;;;;;;24.29;49.05;101363.75;4957651;28;96984;-48
2022/08/21 08:39:26;;;;;;;1.30;0.90;;;;;;;24.42;48.52;101355.78;4956450;28;97234;-48
2022/08/21 08:42:01;;;;;;;2.27;1.10;;;;;;;24.55;48.00;101361.13;4956194;28;99246;-48
2022/08/21 08:44:27;;;;;;;2.53;1.00;;;;;;;24.69;48.32;101361.59;4958701;28;97009;-48
2022/08/21 08:46:52;;;;;;;1.40;0.73;;;;;;;24.81;48.00;101361.91;4953059;28;97209;-49
2022/08/21 08:49:27;;;;;;;2.40;0.80;;;;;;;24.92;47.02;101367.06;4955830;28;97365;-47
2022/08/21 08:52:04;;;;;;;1.73;0.90;;;;;;;25.04;46.53;101351.94;4935806;28;100465;-49
2022/08/21 08:55:09;;;;;;;1.37;0.90;;;;;;;25.18;45.41;101358.00;4956811;28;97377;-48
2022/08/21 08:57:37;;;;;;;2.77;1.00;;;;;;;25.33;46.95;101351.47;4956879;28;98809;-48
2022/08/21 09:00:10;;;;;;;1.67;1.07;;;;;;;25.44;45.54;101345.38;4956920;28;97154;-48
2022/08/21 09:02:39;;;;;;;1.17;1.03;;;;;;;25.52;45.47;101343.94;4956004;28;97436;-49
2022/08/21 09:05:05;;;;;;;2.90;0.90;;;;;;;25.63;45.78;101353.97;4957645;28;98672;-49
2022/08/21 09:07:51;;;;;;;1.23;0.87;;;;;;;25.80;44.21;101346.25;4956484;28;96913;-48
2022/08/21 09:10:28;;;;;;;1.40;0.80;;;;;;;26.01;44.20;101346.50;4953042;28;97296;-48
2022/08/21 09:13:30;;;;;;;3.10;1.27;;;;;;;26.14;43.35;101342.63;4960196;28;97425;-48
2022/08/21 09:16:29;;;;;;;1.73;1.07;;;;;;;26.26;43.23;101346.38;4923806;28;100307;-48
2022/08/21 09:19:09;;;;;;;1.30;0.80;;;;;;;26.41;43.07;101339.75;4957525;28;97097;-48
2022/08/21 09:21:58;;;;;;;0.90;0.70;;;;;;;26.49;42.91;101338.34;4956931;28;100909;-48
2022/08/21 09:24:33;;;;;;;1.27;0.50;;;;;;;26.63;42.71;101342.22;4957444;28;101916;-48
2022/08/21 09:27:12;;;;;;;1.73;0.90;;;;;;;26.73;41.17;101331.72;4945853;28;98541;-48
2022/08/21 09:29:51;;;;;;;1.00;0.87;;;;;;;26.78;42.23;101341.25;4955690;28;97084;-48
2022/08/21 09:32:20;;;;;;;1.30;0.80;;;;;;;26.89;43.14;101339.97;4956199;28;97321;-48
2022/08/21 09:35:07;;;;;;;1.13;0.90;;;;;;;26.95;41.61;101334.78;4954279;28;97815;-48
2022/08/21 09:37:35;;;;;;;1.70;1.10;;;;;;;27.03;42.69;101341.03;4955744;28;100227;-49
2022/08/21 09:40:15;;;;;;;0.90;0.80;;;;;;;27.08;42.44;101345.66;4956140;28;97219;-48
2022/08/21 09:42:40;;;;;;;1.57;0.80;;;;;;;27.19;42.39;101337.34;4957186;28;97580;-49
2022/08/21 09:45:06;;;;;;;1.87;0.90;;;;;;;27.31;42.28;101326.19;4956141;28;102179;-48
2022/08/21 09:47:31;;;;;;;0.73;0.73;;;;;;;27.40;42.14;101322.63;4956792;28;98278;-48
2022/08/21 09:50:11;;;;;;;2.87;1.20;;;;;;;27.46;41.11;101326.66;4956598;28;97216;-48
2022/08/21 09:52:44;;;;;;;1.90;0.80;;;;;;;27.54;41.21;101326.50;4955399;28;97236;-47
2022/08/21 09:58:11;;;;;;;1.60;0.87;;;;;;;27.61;41.22;101319.94;4955641;28;101433;-48
2022/08/21 10:00:37;;;;;;;2.63;1.03;;;;;;;27.64;41.32;101329.31;4956335;28;97674;-48
2022/08/21 10:03:21;;;;;;;2.80;0.70;;;;;;;27.70;40.22;101324.09;4958117;28;97427;-48
2022/08/21 10:05:58;;;;;;;2.30;0.87;;;;;;;27.73;39.84;101332.16;4956014;28;98232;-48
2022/08/21 10:08:26;;;;;;;1.73;1.20;;;;;;;27.73;40.84;101326.50;4955746;28;100022;-48
2022/08/21 10:11:07;;;;;;;2.53;0.90;;;;;;;27.77;40.60;101326.03;4951116;28;97001;-48
2022/08/21 10:13:44;;;;;;;2.27;0.70;;;;;;;27.82;39.71;101322.91;4955947;28;97309;-49
2022/08/21 10:16:09;;;;;;;2.03;0.80;;;;;;;27.80;40.58;101316.34;4957258;28;98641;-49
2022/08/21 10:18:42;;;;;;;2.17;1.10;;;;;;;27.80;39.66;101314.28;4952717;28;97380;-47
2022/08/21 10:21:31;;;;;;;1.93;1.00;;;;;;;27.81;39.59;101317.81;4958229;28;98363;-48
2022/08/21 10:24:27;;;;;;;2.13;0.97;;;;;;;27.83;38.96;101307.41;4958964;28;97803;-48
2022/08/21 10:27:09;;;;;;;1.90;0.90;;;;;;;27.88;39.30;101309.19;4957338;28;101744;-48
2022/08/21 10:29:55;;;;;;;1.90;0.73;;;;;;;27.91;38.85;101322.16;4957948;28;97315;-48
2022/08/21 10:32:52;;;;;;;0.90;0.70;;;;;;;27.98;38.68;101318.41;4959750;28;97151;-48
2022/08/21 10:35:30;;;;;;;1.90;1.17;;;;;;;28.09;38.77;101306.47;4958697;28;96989;-48
2022/08/21 10:38:08;;;;;;;2.83;0.90;;;;;;;28.16;38.34;101305.56;4959986;28;102053;-48
2022/08/21 10:40:59;;;;;;;3.20;1.33;;;;;;;28.19;37.82;101307.19;4959614;28;97128;-47
2022/08/21 10:43:34;;;;;;;2.80;1.07;;;;;;;28.28;38.11;101310.56;4960836;28;96994;-47
2022/08/21 10:46:37;;;;;;;2.10;0.80;;;;;;;28.34;37.19;101306.06;4960041;28;97023;-51
2022/08/21 10:49:02;;;;;;;4.57;0.83;;;;;;;28.41;38.32;101305.16;4953404;28;102208;-49
2022/08/21 10:51:40;;;;;;;1.23;0.83;;;;;;;28.50;38.19;101295.13;4950723;28;97052;-49
2022/08/21 10:54:20;;;;;;;3.17;1.17;;;;;;;28.52;37.49;101300.94;4950011;28;97419;-47
2022/08/21 10:56:49;;;;;;;2.60;0.70;;;;;;;28.47;37.75;101293.50;4945282;28;97053;-47
2022/08/21 10:59:26;;;;;;;1.37;1.00;;;;;;;28.49;37.40;101302.88;4950114;28;97517;-49
2022/08/21 11:02:03;;;;;;;1.77;0.90;;;;;;;28.63;38.11;101300.31;4943949;28;97201;-47
2022/08/21 11:04:38;;;;;;;4.40;1.20;;;;;;;28.70;37.07;101297.25;4951688;28;98082;-47
2022/08/21 11:07:10;;;;;;;0.90;0.63;;;;;;;28.63;37.39;101303.13;4954589;28;96746;-47
2022/08/21 11:09:38;;;;;;;1.27;0.80;;;;;;;28.69;37.58;101295.78;4959361;28;101164;-48
2022/08/21 11:12:19;;;;;;;3.67;0.80;;;;;;;28.81;36.89;101298.72;4958577;28;96898;-48
2022/08/21 11:14:56;;;;;;;2.23;0.83;;;;;;;28.95;35.98;101296.81;4959011;28;97338;-50
2022/08/21 11:17:51;;;;;;;1.40;0.77;;;;;;;29.05;36.31;101305.25;4951768;28;97841;-53
2022/08/21 11:20:43;;;;;;;1.40;0.77;;;;;;;29.19;36.31;101306.94;4952067;28;102668;-52
2022/08/21 11:23:16;;;;;;;3.80;1.00;;;;;;;29.21;35.49;101307.06;4959617;28;101505;-49
2022/08/21 11:25:47;;;;;;;2.20;0.90;;;;;;;29.10;36.30;101309.81;4960350;28;97120;-48
2022/08/21 11:28:24;;;;;;;1.83;0.90;;;;;;;29.20;35.94;101304.88;4957202;28;97034;-49
2022/08/21 11:31:12;;;;;;;2.43;0.90;;;;;;;29.35;35.81;101313.69;4959195;28;97541;-50
2022/08/21 11:33:43;;;;;;;1.57;0.83;;;;;;;29.45;36.12;101303.00;4957691;28;101684;-49
2022/08/21 11:36:39;;;;;;;1.70;0.87;;;;;;;29.63;35.05;101298.50;4957057;28;96981;-47